createdAt,value
2024-05-09T00:02:34.703Z,100087.23
2024-05-09T00:05:37.575Z,100088.95
2024-05-09T00:08:40.556Z,100087.16
2024-05-09T00:11:43.347Z,100088.12
2024-05-09T00:14:46.041Z,100085.90
2024-05-09T00:17:48.854Z,100085.05
2024-05-09T00:20:51.921Z,100084.98
2024-05-09T00:23:54.849Z,100085.75
2024-05-09T00:26:57.949Z,100087.23
2024-05-09T00:30:00.676Z,100083.94
2024-05-09T00:33:05.169Z,100083.48
2024-05-09T00:36:08.929Z,100083.70
2024-05-09T00:39:11.584Z,100087.89
2024-05-09T00:42:14.206Z,100089.55
2024-05-09T00:45:17.013Z,100086.67
2024-05-09T00:48:21.536Z,100093.98
2024-05-09T00:51:24.557Z,100093.02
2024-05-09T00:54:27.394Z,100097.23
2024-05-09T00:57:30.308Z,100097.23
2024-05-09T01:00:38.983Z,100095.14
2024-05-09T01:03:44.797Z,100096.70
2024-05-09T01:06:47.898Z,100096.23
2024-05-09T01:09:50.619Z,100097.37
2024-05-09T01:12:53.309Z,100098.24
2024-05-09T01:15:57.873Z,100095.56
2024-05-09T01:19:01.471Z,100087.38
2024-05-09T01:22:07.698Z,100090.09
2024-05-09T01:25:10.359Z,100090.80
2024-05-09T01:28:13.345Z,100091.00
2024-05-09T01:31:16.089Z,100091.20
2024-05-09T01:34:18.780Z,100089.74
2024-05-09T01:37:21.402Z,100088.27
2024-05-09T01:40:33.449Z,100092.23
2024-05-09T01:43:40.493Z,100091.20
2024-05-09T01:46:43.262Z,100090.02
2024-05-09T01:49:46.070Z,100092.05
2024-05-09T01:52:48.946Z,100092.68
2024-05-09T01:55:51.780Z,100096.05
2024-05-09T01:58:54.477Z,100098.16
2024-05-09T02:01:57.943Z,100098.70
2024-05-09T02:05:00.930Z,100096.14
2024-05-09T02:08:04.689Z,100094.34
2024-05-09T02:11:08.653Z,100095.99
2024-05-09T02:14:11.641Z,100098.94
2024-05-09T02:17:14.454Z,100099.08
2024-05-09T02:20:26.731Z,100097.43
2024-05-09T02:23:33.101Z,100098.57
2024-05-09T02:26:35.935Z,100098.23
2024-05-09T02:29:38.651Z,100093.48
2024-05-09T02:32:41.626Z,100089.23
2024-05-09T02:35:44.684Z,100083.90
2024-05-09T02:38:47.945Z,100084.98
2024-05-09T02:41:50.535Z,100088.17
2024-05-09T02:44:53.161Z,100088.84
2024-05-09T02:47:56.006Z,100089.98
2024-05-09T02:51:01.178Z,100089.84
2024-05-09T02:54:03.859Z,100087.90
2024-05-09T02:57:06.588Z,100087.32
2024-05-09T03:00:15.224Z,100086.92
2024-05-09T03:03:21.996Z,100089.90
2024-05-09T03:06:25.121Z,100095.92
2024-05-09T03:09:27.822Z,100094.42
2024-05-09T03:12:30.608Z,100093.41
2024-05-09T03:15:33.522Z,100094.41
2024-05-09T03:18:36.218Z,100094.42
2024-05-09T03:21:42.341Z,100095.88
2024-05-09T03:24:45.181Z,100090.11
2024-05-09T03:27:48.167Z,100093.80
2024-05-09T03:30:50.796Z,100096.13
2024-05-09T03:33:53.561Z,100097.56
2024-05-09T03:36:56.467Z,100100.40
2024-05-09T03:39:59.334Z,100106.14
2024-05-09T03:43:02.015Z,100102.39
2024-05-09T03:46:04.748Z,100100.16
2024-05-09T03:49:07.907Z,100096.30
2024-05-09T03:52:11.397Z,100095.52
2024-05-09T03:55:14.131Z,100097.29
2024-05-09T03:58:16.781Z,100097.84
2024-05-09T04:01:19.448Z,100090.17
2024-05-09T04:04:22.244Z,100096.55
2024-05-09T04:07:24.957Z,100098.59
2024-05-09T04:10:32.831Z,100096.84
2024-05-09T04:13:37.164Z,100096.09
2024-05-09T04:16:39.815Z,100097.36
2024-05-09T04:19:42.391Z,100095.11
2024-05-09T04:22:45.182Z,100098.02
2024-05-09T04:25:47.976Z,100093.66
2024-05-09T04:28:50.706Z,100095.61
2024-05-09T04:31:53.556Z,100100.91
2024-05-09T04:34:56.375Z,100104.87
2024-05-09T04:37:59.157Z,100101.17
2024-05-09T04:41:02.012Z,100101.70
2024-05-09T04:44:04.880Z,100103.66
2024-05-09T04:47:07.661Z,100104.40
2024-05-09T04:50:14.516Z,100107.90
2024-05-09T04:53:17.827Z,100107.35
2024-05-09T04:56:20.717Z,100105.70
2024-05-09T04:59:23.428Z,100095.40
2024-05-09T05:02:26.292Z,100095.10
2024-05-09T05:05:29.127Z,100098.88
2024-05-09T05:08:32.118Z,100103.14
2024-05-09T05:11:36.141Z,100103.83
2024-05-09T05:14:38.966Z,100102.79
2024-05-09T05:17:41.839Z,100103.03
2024-05-09T05:20:44.771Z,100102.64
2024-05-09T05:23:47.674Z,100104.14
2024-05-09T05:26:50.265Z,100102.39
2024-05-09T05:29:52.846Z,100103.47
2024-05-09T05:32:56.028Z,100099.42
2024-05-09T05:35:58.884Z,100104.67
2024-05-09T05:39:01.627Z,100106.77
2024-05-09T05:42:04.421Z,100099.30
2024-05-09T05:45:09.808Z,100098.85
2024-05-09T05:48:13.545Z,100099.92
2024-05-09T05:51:16.581Z,100092.55
2024-05-09T05:54:19.234Z,100101.80
2024-05-09T05:57:21.909Z,100099.69
2024-05-09T06:00:30.103Z,100103.77
2024-05-09T06:03:40.565Z,100106.30
2024-05-09T06:06:43.416Z,100106.08
2024-05-09T06:09:47.490Z,100107.25
2024-05-09T06:12:50.923Z,100106.46
2024-05-09T06:15:53.576Z,100103.26
2024-05-09T06:18:56.390Z,100103.31
2024-05-09T06:21:59.270Z,100098.06
2024-05-09T06:25:01.887Z,100095.15
2024-05-09T06:28:05.199Z,100095.09
2024-05-09T06:31:07.960Z,100096.84
2024-05-09T06:34:10.836Z,100093.73
2024-05-09T06:37:13.614Z,100094.06
2024-05-09T06:40:21.404Z,100093.27
2024-05-09T06:43:28.254Z,100094.42
2024-05-09T06:46:30.897Z,100094.86
2024-05-09T06:49:33.720Z,100091.89
2024-05-09T06:52:36.439Z,100093.66
2024-05-09T06:55:39.181Z,100088.40
2024-05-09T06:58:41.914Z,100094.49
2024-05-09T07:01:44.861Z,100094.14
2024-05-09T07:04:47.684Z,100092.06
2024-05-09T07:07:50.435Z,100095.06
2024-05-09T07:10:53.366Z,100089.98
2024-05-09T07:13:56.322Z,100089.30
2024-05-09T07:16:59.158Z,100082.50
2024-05-09T07:20:01.915Z,100084.04
2024-05-09T07:23:04.938Z,100083.56
2024-05-09T07:26:07.785Z,100085.00
2024-05-09T07:29:10.602Z,100081.04
2024-05-09T07:32:13.436Z,100077.80
2024-05-09T07:35:16.442Z,100087.39
2024-05-09T07:38:19.259Z,100090.44
2024-05-09T07:41:22.354Z,100083.63
2024-05-09T07:44:25.100Z,100084.07
2024-05-09T07:52:23.820Z,100082.98
2024-05-09T07:54:00.630Z,100087.75
2024-05-09T07:57:04.493Z,100082.44
2024-05-09T08:00:08.270Z,100087.63
2024-05-09T08:03:14.450Z,100081.85
2024-05-09T08:06:17.223Z,100079.83
2024-05-09T08:09:21.386Z,100083.13
2024-05-09T08:12:24.524Z,100083.92
2024-05-09T08:15:27.333Z,100082.63
2024-05-09T08:18:30.293Z,100079.27
2024-05-09T08:21:33.162Z,100077.32
2024-05-09T08:24:35.964Z,100075.73
2024-05-09T08:27:39.593Z,100078.15
2024-05-09T08:30:42.796Z,100073.02
2024-05-09T08:33:49.060Z,100073.71
2024-05-09T08:36:51.854Z,100074.02
2024-05-09T08:39:54.823Z,100075.31
2024-05-09T08:42:58.089Z,100070.80
2024-05-09T08:46:02.083Z,100070.81
2024-05-09T08:49:05.153Z,100065.96
2024-05-09T08:52:08.240Z,100067.40
2024-05-09T08:55:11.042Z,100070.00
2024-05-09T08:58:16.086Z,100068.96
2024-05-09T09:01:19.604Z,100069.70
2024-05-09T09:04:23.434Z,100061.03
2024-05-09T09:07:26.329Z,100068.23
2024-05-09T09:10:32.181Z,100062.41
2024-05-09T09:13:35.839Z,100068.95
2024-05-09T09:16:38.519Z,100063.28
2024-05-09T09:19:41.749Z,100066.71
2024-05-09T09:22:44.232Z,100068.86
2024-05-09T09:25:47.312Z,100070.08
2024-05-09T09:28:50.032Z,100071.45
2024-05-09T09:32:03.849Z,100072.64
2024-05-09T09:35:07.016Z,100070.71
2024-05-09T09:38:11.188Z,100070.98
2024-05-09T09:41:16.810Z,100065.05
2024-05-09T09:44:19.447Z,100065.30
2024-05-09T09:47:22.977Z,100061.95
2024-05-09T09:50:33.329Z,100058.77
2024-05-09T09:53:38.267Z,100060.59
2024-05-09T09:56:41.496Z,100053.99
2024-05-09T09:59:46.653Z,100055.89
2024-05-09T10:02:49.271Z,100054.38
2024-05-09T10:05:53.128Z,100057.40
2024-05-09T10:08:56.490Z,100057.16
2024-05-09T10:12:09.511Z,100059.23
2024-05-09T10:15:12.349Z,100056.92
2024-05-09T10:18:15.468Z,100057.70
2024-05-09T10:21:19.340Z,100057.39
2024-05-09T10:24:22.030Z,100055.25
2024-05-09T10:27:28.748Z,100052.98
2024-05-09T10:30:35.924Z,100038.40
2024-05-09T10:33:48.361Z,100036.02
2024-05-09T10:36:55.499Z,100037.61
2024-05-09T10:39:58.589Z,100044.84
2024-05-09T10:43:04.651Z,100051.48
2024-05-09T10:46:09.982Z,100054.59
2024-05-09T10:49:16.651Z,100054.46
2024-05-09T10:52:20.136Z,100056.98
2024-05-09T10:55:23.145Z,100049.19
2024-05-09T10:58:26.278Z,100048.60
2024-05-09T11:01:29.135Z,100048.94
2024-05-09T11:04:35.869Z,100049.02
2024-05-09T11:07:38.861Z,100041.16
2024-05-09T11:10:42.182Z,100034.98
2024-05-09T11:13:45.264Z,100028.88
2024-05-09T11:16:57.812Z,100022.61
2024-05-09T11:20:00.680Z,100018.51
2024-05-09T11:23:07.142Z,100018.48
2024-05-09T11:26:10.563Z,100018.61
2024-05-09T11:29:15.747Z,100020.01
2024-05-09T11:32:28.672Z,100016.71
2024-05-09T11:35:31.495Z,100012.05
2024-05-09T11:38:34.296Z,100009.41
2024-05-09T11:41:37.558Z,100011.89
2024-05-09T11:44:40.214Z,100012.75
2024-05-09T11:47:43.092Z,100012.70
2024-05-09T11:50:45.769Z,100006.13
2024-05-09T11:53:48.410Z,100005.84
2024-05-09T11:56:51.680Z,100006.46
2024-05-09T11:59:54.440Z,100007.15
2024-05-09T12:03:00.271Z,100001.60
2024-05-09T12:06:03.785Z,100005.08
2024-05-09T12:09:06.528Z,100000.92
2024-05-09T12:12:09.294Z,99999.16
2024-05-09T12:15:12.110Z,100003.08
2024-05-09T12:18:14.756Z,100004.55
2024-05-09T12:21:17.509Z,99998.30
2024-05-09T12:24:20.376Z,99993.67
2024-05-09T12:27:23.280Z,99996.41
2024-05-09T12:30:35.055Z,99994.36
2024-05-09T12:33:41.304Z,99987.52
2024-05-09T12:36:44.176Z,99987.55
2024-05-09T12:39:46.866Z,99986.88
2024-05-09T12:42:49.598Z,99987.67
2024-05-09T12:45:52.295Z,99981.29
2024-05-09T12:48:55.160Z,99982.95
2024-05-09T12:51:58.135Z,99982.68
2024-05-09T12:55:00.872Z,99978.66
2024-05-09T12:58:03.944Z,99967.61
2024-05-09T13:01:07.023Z,99968.20
2024-05-09T13:04:09.989Z,99965.65
2024-05-09T13:07:12.788Z,99958.29
2024-05-09T13:10:23.071Z,99954.02
2024-05-09T13:13:31.888Z,99953.83
2024-05-09T13:16:34.582Z,99953.96
2024-05-09T13:19:37.351Z,99950.38
2024-05-09T13:22:40.447Z,99949.04
2024-05-09T13:25:43.225Z,99945.52
2024-05-09T13:28:45.906Z,99945.02
2024-05-09T13:31:48.583Z,99944.15
2024-05-09T13:34:51.199Z,99939.55
2024-05-09T13:37:53.928Z,99933.55
2024-05-09T13:40:56.440Z,99929.54
2024-05-09T13:43:59.193Z,99924.53
2024-05-09T13:47:01.912Z,99921.66
2024-05-09T13:50:06.896Z,99928.08
2024-05-09T13:53:11.712Z,99926.02
2024-05-09T13:56:14.626Z,99927.95
2024-05-09T13:59:17.243Z,99927.02
2024-05-09T14:02:20.224Z,99922.50
2024-05-09T14:05:23.172Z,99915.87
2024-05-09T14:08:26.329Z,99911.55
2024-05-09T14:11:29.019Z,99908.45
2024-05-09T14:14:31.768Z,99911.02
2024-05-09T14:17:34.461Z,99901.30
2024-05-09T14:20:38.029Z,99891.73
2024-05-09T14:23:40.675Z,99896.23
2024-05-09T14:26:44.107Z,99894.88
2024-05-09T14:29:46.746Z,99891.62
2024-05-09T14:32:49.415Z,99888.02
2024-05-09T14:35:52.948Z,99882.67
2024-05-09T14:38:55.867Z,99886.91
2024-05-09T14:41:58.538Z,99880.04
2024-05-09T14:45:02.037Z,99882.11
2024-05-09T14:48:05.511Z,99880.09
2024-05-09T14:51:08.244Z,99870.99
2024-05-09T14:54:10.958Z,99873.70
2024-05-09T14:57:13.782Z,99869.48
2024-05-09T15:00:24.804Z,99866.23
2024-05-09T15:03:31.259Z,99865.46
2024-05-09T15:06:34.126Z,99863.55
2024-05-09T15:09:37.070Z,99859.29
2024-05-09T15:12:39.748Z,99855.89
2024-05-09T15:15:42.640Z,99851.85
2024-05-09T15:18:45.508Z,99844.94
2024-05-09T15:21:48.399Z,99846.11
2024-05-09T15:24:51.239Z,99839.43
2024-05-09T15:27:54.792Z,99836.86
2024-05-09T15:30:57.666Z,99829.42
2024-05-09T15:34:00.585Z,99826.23
2024-05-09T15:37:03.912Z,99823.77
2024-05-09T15:40:12.300Z,99817.63
2024-05-09T15:43:21.458Z,99815.84
2024-05-09T15:46:24.393Z,99814.64
2024-05-09T15:49:27.240Z,99817.10
2024-05-09T15:52:30.042Z,99812.59
2024-05-09T15:55:33.639Z,99808.92
2024-05-09T15:58:36.802Z,99809.14
2024-05-09T16:01:39.544Z,99807.09
2024-05-09T16:04:42.407Z,99804.71
2024-05-09T16:07:45.504Z,99802.80
2024-05-09T16:10:48.487Z,99805.34
2024-05-09T16:13:51.428Z,99800.89
2024-05-09T16:16:54.381Z,99799.44
2024-05-09T16:19:57.014Z,99800.39
2024-05-09T16:22:59.696Z,99807.65
2024-05-09T16:26:02.259Z,99808.71
2024-05-09T16:29:04.876Z,99812.12
2024-05-09T16:32:07.695Z,99809.08
2024-05-09T16:35:10.425Z,99807.16
2024-05-09T16:38:13.364Z,99802.13
2024-05-09T16:41:16.216Z,99804.01
2024-05-09T16:44:18.923Z,99798.11
2024-05-09T16:47:21.748Z,99798.05
2024-05-09T16:50:29.489Z,99797.40
2024-05-09T16:53:35.714Z,99794.75
2024-05-09T16:56:39.024Z,99798.98
2024-05-09T16:59:43.129Z,99800.30
2024-05-09T17:02:45.961Z,99794.89
2024-05-09T17:05:50.387Z,99790.86
2024-05-09T17:08:55.464Z,99794.29
2024-05-09T17:11:58.659Z,99792.63
2024-05-09T17:15:01.514Z,99788.50
2024-05-09T17:18:04.970Z,99790.10
2024-05-09T17:21:07.799Z,99789.35
2024-05-09T17:24:10.437Z,99788.31
2024-05-09T17:27:13.039Z,99790.52
2024-05-09T17:30:24.679Z,99785.81
2024-05-09T17:33:34.695Z,99784.63
2024-05-09T17:36:37.824Z,99785.43
2024-05-09T17:39:40.658Z,99777.35
2024-05-09T17:42:43.638Z,99781.09
2024-05-09T17:45:46.754Z,99785.47
2024-05-09T17:48:49.783Z,99784.35
2024-05-09T17:51:52.997Z,99784.33
2024-05-09T17:54:55.801Z,99791.71
2024-05-09T17:57:58.559Z,99798.08
2024-05-09T18:01:01.602Z,99797.96
2024-05-09T18:04:05.177Z,99803.75
2024-05-09T18:07:08.063Z,99805.33
2024-05-09T18:10:19.287Z,99799.10
2024-05-09T18:13:28.832Z,99799.55
2024-05-09T18:16:32.434Z,99805.85
2024-05-09T18:19:35.377Z,99806.04
2024-05-09T18:22:38.375Z,99803.16
2024-05-09T18:25:41.253Z,99806.03
2024-05-09T18:28:44.070Z,99811.46
2024-05-09T18:31:47.249Z,99813.34
2024-05-09T18:34:50.270Z,99815.05
2024-05-09T18:37:53.393Z,99812.77
2024-05-09T18:40:56.256Z,99815.15
2024-05-09T18:43:59.188Z,99816.79
2024-05-09T18:47:02.158Z,99825.73
2024-05-09T18:50:09.175Z,99831.03
2024-05-09T18:53:17.553Z,99833.00
2024-05-09T18:56:20.926Z,99835.21
2024-05-09T18:59:23.615Z,99831.10
2024-05-09T19:02:26.422Z,99832.49
2024-05-09T19:05:29.378Z,99835.31
2024-05-09T19:08:32.332Z,99831.09
2024-05-09T19:11:35.547Z,99832.30
2024-05-09T19:14:38.233Z,99832.77
2024-05-09T19:17:41.203Z,99831.95
2024-05-09T19:20:44.505Z,99832.08
2024-05-09T19:23:52.130Z,99832.73
2024-05-09T19:26:56.270Z,99831.10
2024-05-09T19:29:59.015Z,99831.84
2024-05-09T19:33:02.150Z,99834.31
2024-05-09T19:36:05.796Z,99837.39
2024-05-09T19:39:08.819Z,99834.92
2024-05-09T19:42:11.790Z,99833.63
2024-05-09T19:45:14.830Z,99831.56
2024-05-09T19:48:17.828Z,99831.95
2024-05-09T19:51:20.890Z,99836.38
2024-05-09T19:54:23.556Z,99838.38
2024-05-09T19:57:26.640Z,99835.85
2024-05-09T20:00:35.255Z,99839.98
2024-05-09T20:03:39.824Z,99842.02
2024-05-09T20:06:42.709Z,99841.52
2024-05-09T20:09:45.614Z,99843.67
2024-05-09T20:12:48.493Z,99844.61
2024-05-09T20:15:51.255Z,99848.09
2024-05-09T20:18:54.189Z,99851.13
2024-05-09T20:21:57.130Z,99854.11
2024-05-09T20:25:01.263Z,99850.19
2024-05-09T20:28:04.618Z,99851.80
2024-05-09T20:31:09.021Z,99854.16
2024-05-09T20:34:11.773Z,99852.60
2024-05-09T20:37:14.665Z,99853.57
2024-05-09T20:40:25.405Z,99852.66
2024-05-09T20:43:34.108Z,99853.85
2024-05-09T20:46:36.749Z,99853.32
2024-05-09T20:49:39.490Z,99853.06
2024-05-09T20:52:42.364Z,99847.97
2024-05-09T20:55:45.485Z,99847.83
2024-05-09T20:58:49.020Z,99843.67
2024-05-09T21:01:51.753Z,99849.44
2024-05-09T21:04:54.546Z,99845.70
2024-05-09T21:07:57.382Z,99849.77
2024-05-09T21:11:00.143Z,99846.58
2024-05-09T21:14:02.761Z,99844.88
2024-05-09T21:17:05.593Z,99847.05
2024-05-09T21:20:14.412Z,99844.91
2024-05-09T21:23:20.440Z,99841.05
2024-05-09T21:26:24.710Z,99833.70
2024-05-09T21:29:27.336Z,99834.64
2024-05-09T21:32:30.064Z,99831.10
2024-05-09T21:35:32.881Z,99828.27
2024-05-09T21:38:35.487Z,99826.27
2024-05-09T21:41:38.174Z,99823.16
2024-05-09T21:44:40.790Z,99821.95
2024-05-09T21:47:43.632Z,99820.15
2024-05-09T21:50:46.451Z,99822.79
2024-05-09T21:53:49.283Z,99825.10
2024-05-09T21:56:52.248Z,99822.05
2024-05-09T21:59:54.863Z,99825.63
2024-05-09T22:02:57.752Z,99824.98
2024-05-09T22:06:00.415Z,99819.35
2024-05-09T22:09:05.015Z,99823.30
2024-05-09T22:12:07.728Z,99823.85
2024-05-09T22:15:10.511Z,99823.64
2024-05-09T22:18:13.467Z,99822.16
2024-05-09T22:21:16.216Z,99825.23
2024-05-09T22:24:19.299Z,99822.44
2024-05-09T22:27:21.896Z,99818.66
2024-05-09T22:30:33.144Z,99821.30
2024-05-09T22:33:39.861Z,99818.50
2024-05-09T22:36:42.998Z,99821.06
2024-05-09T22:39:45.627Z,99818.55
2024-05-09T22:42:48.427Z,99817.30
2024-05-09T22:45:51.486Z,99812.38
2024-05-09T22:48:54.416Z,99810.19
2024-05-09T22:51:57.153Z,99813.47
2024-05-09T22:54:59.797Z,99811.81
2024-05-09T22:58:02.842Z,99808.86
2024-05-09T23:01:05.660Z,99810.28
2024-05-09T23:04:08.661Z,99810.27
2024-05-09T23:07:11.598Z,99808.41
2024-05-09T23:10:21.259Z,99805.46
2024-05-09T23:13:30.549Z,99806.88
2024-05-09T23:16:33.675Z,99807.27
2024-05-09T23:19:36.542Z,99805.41
2024-05-09T23:22:39.454Z,99805.90
2024-05-09T23:25:42.313Z,99802.88
2024-05-09T23:28:45.126Z,99800.09
2024-05-09T23:31:47.887Z,99798.67
2024-05-09T23:34:50.567Z,99794.11
2024-05-09T23:37:53.358Z,99792.33
2024-05-09T23:40:56.161Z,99793.02
2024-05-09T23:43:58.840Z,99791.42
2024-05-09T23:47:01.496Z,99787.63
2024-05-09T23:50:08.793Z,99785.50
2024-05-09T23:53:14.148Z,99785.98
2024-05-09T23:56:17.177Z,99780.40
2024-05-09T23:59:19.809Z,99777.72
